createdAt,value
2018-08-30T00:00:13.265Z,19.72
2018-08-30T00:02:42.669Z,19.67
2018-08-30T00:05:12.047Z,19.68
2018-08-30T00:07:41.429Z,19.62
2018-08-30T00:10:10.836Z,19.55
2018-08-30T00:12:40.277Z,19.49
2018-08-30T00:15:09.652Z,19.44
2018-08-30T00:17:39.090Z,19.42
2018-08-30T00:20:08.456Z,19.31
2018-08-30T00:22:37.895Z,19.28
2018-08-30T00:25:07.278Z,19.23
2018-08-30T00:27:36.712Z,19.15
2018-08-30T00:30:06.108Z,19.21
2018-08-30T00:32:35.506Z,19.21
2018-08-30T00:35:05.096Z,19.21
2018-08-30T00:37:34.520Z,19.25
2018-08-30T00:40:03.896Z,19.26
2018-08-30T00:42:33.448Z,19.28
2018-08-30T00:45:02.814Z,19.32
2018-08-30T00:47:32.237Z,19.16
2018-08-30T00:50:01.610Z,18.56
2018-08-30T00:52:31.052Z,18.40
2018-08-30T00:55:00.416Z,18.19
2018-08-30T00:57:29.805Z,18.02
2018-08-30T00:59:59.204Z,17.86
2018-08-30T01:02:28.569Z,17.83
2018-08-30T01:04:57.941Z,17.82
2018-08-30T01:07:27.333Z,17.76
2018-08-30T01:09:56.697Z,17.85
2018-08-30T01:12:26.173Z,17.75
2018-08-30T01:14:55.581Z,17.81
2018-08-30T01:17:25.048Z,17.83
2018-08-30T01:19:54.437Z,17.75
2018-08-30T01:22:23.870Z,17.77
2018-08-30T01:24:53.233Z,17.79
2018-08-30T01:27:22.657Z,17.78
2018-08-30T01:29:52.018Z,17.67
2018-08-30T01:32:21.473Z,17.68
2018-08-30T01:34:50.844Z,17.72
2018-08-30T01:37:20.283Z,17.72
2018-08-30T01:39:49.645Z,17.66
2018-08-30T01:42:19.102Z,17.73
2018-08-30T01:44:48.459Z,17.67
2018-08-30T01:47:17.910Z,17.66
2018-08-30T01:49:47.305Z,17.67
2018-08-30T01:52:16.685Z,17.67
2018-08-30T01:54:46.068Z,17.64
2018-08-30T01:57:15.636Z,17.62
2018-08-30T01:59:45.005Z,17.60
2018-08-30T02:02:14.454Z,17.54
2018-08-30T02:04:43.814Z,17.55
2018-08-30T02:07:13.206Z,17.54
2018-08-30T02:09:42.583Z,17.47
2018-08-30T02:12:12.018Z,17.51
2018-08-30T02:14:41.382Z,17.43
2018-08-30T02:17:10.821Z,17.41
2018-08-30T02:19:40.233Z,17.38
2018-08-30T02:22:09.625Z,17.32
2018-08-30T02:24:38.984Z,17.37
2018-08-30T02:27:08.431Z,17.33
2018-08-30T02:29:37.817Z,17.32
2018-08-30T02:32:07.286Z,17.28
2018-08-30T02:34:36.630Z,17.25
2018-08-30T02:37:06.048Z,17.19
2018-08-30T02:39:35.432Z,17.17
2018-08-30T02:42:04.861Z,17.16
2018-08-30T02:44:34.208Z,17.14
2018-08-30T02:47:03.642Z,17.19
2018-08-30T02:49:33.041Z,17.22
2018-08-30T02:52:02.468Z,17.20
2018-08-30T02:54:32.204Z,17.19
2018-08-30T02:57:01.684Z,17.13
2018-08-30T02:59:31.064Z,17.04
2018-08-30T03:02:00.486Z,17.02
2018-08-30T03:04:29.857Z,16.96
2018-08-30T03:06:59.320Z,16.92
2018-08-30T03:09:28.705Z,16.84
2018-08-30T03:11:58.182Z,16.85
2018-08-30T03:14:27.574Z,16.83
2018-08-30T03:16:56.986Z,16.71
2018-08-30T03:19:26.353Z,16.69
2018-08-30T03:21:55.804Z,16.65
2018-08-30T03:24:25.169Z,16.59
2018-08-30T03:26:54.607Z,16.59
2018-08-30T03:29:23.981Z,16.60
2018-08-30T03:31:53.443Z,16.60
2018-08-30T03:34:22.785Z,16.61
2018-08-30T03:36:52.216Z,16.56
2018-08-30T03:39:21.577Z,16.58
2018-08-30T03:41:51.053Z,16.45
2018-08-30T03:44:20.427Z,16.36
2018-08-30T03:46:49.786Z,16.39
2018-08-30T03:49:19.180Z,16.36
2018-08-30T03:51:48.622Z,16.33
2018-08-30T03:54:18.035Z,16.36
2018-08-30T03:56:47.442Z,16.23
2018-08-30T03:59:16.796Z,16.13
2018-08-30T04:01:46.237Z,16.05
2018-08-30T04:04:15.679Z,16.03
2018-08-30T04:06:45.093Z,16.04
2018-08-30T04:09:14.465Z,16.02
2018-08-30T04:11:43.881Z,15.92
2018-08-30T04:14:13.229Z,15.82
2018-08-30T04:16:42.637Z,15.77
2018-08-30T04:19:12.000Z,15.73
2018-08-30T04:21:41.467Z,15.63
2018-08-30T04:24:10.927Z,15.62
2018-08-30T04:26:40.370Z,15.57
2018-08-30T04:29:09.861Z,15.58
2018-08-30T04:31:39.359Z,15.48
2018-08-30T04:34:08.720Z,15.42
2018-08-30T04:36:38.182Z,15.35
2018-08-30T04:39:09.440Z,15.39
2018-08-30T04:41:38.833Z,15.39
2018-08-30T04:44:08.217Z,15.39
2018-08-30T04:46:37.633Z,15.43
2018-08-30T04:49:07.025Z,15.54
2018-08-30T04:51:36.436Z,15.36
2018-08-30T04:54:06.593Z,15.49
2018-08-30T04:56:36.077Z,15.51
2018-08-30T04:59:05.429Z,15.53
2018-08-30T05:01:34.884Z,15.63
2018-08-30T05:04:04.506Z,15.69
2018-08-30T05:06:33.963Z,15.60
2018-08-30T05:09:03.852Z,15.70
2018-08-30T05:11:33.280Z,15.64
2018-08-30T05:14:02.652Z,15.71
2018-08-30T05:16:32.101Z,15.78
2018-08-30T05:19:01.970Z,15.74
2018-08-30T05:21:31.425Z,15.82
2018-08-30T05:24:00.996Z,15.82
2018-08-30T05:26:30.361Z,15.67
2018-08-30T05:28:59.727Z,15.77
2018-08-30T05:31:29.129Z,15.66
2018-08-30T05:33:58.501Z,15.84
2018-08-30T05:36:27.935Z,15.80
2018-08-30T05:38:57.317Z,15.81
2018-08-30T05:41:26.739Z,15.69
2018-08-30T05:43:56.098Z,15.89
2018-08-30T05:46:25.532Z,15.66
2018-08-30T05:48:54.900Z,15.82
2018-08-30T05:51:24.293Z,15.91
2018-08-30T05:53:53.644Z,15.70
2018-08-30T05:56:22.994Z,15.86
2018-08-30T05:58:52.376Z,15.94
2018-08-30T06:01:21.857Z,15.87
2018-08-30T06:03:51.260Z,15.81
2018-08-30T06:06:20.647Z,15.66
2018-08-30T06:08:50.003Z,15.63
2018-08-30T06:11:19.513Z,15.76
2018-08-30T06:13:48.877Z,15.67
2018-08-30T06:16:18.266Z,15.77
2018-08-30T06:18:47.640Z,15.67
2018-08-30T06:21:17.063Z,15.77
2018-08-30T06:23:46.449Z,15.73
2018-08-30T06:26:15.812Z,15.64
2018-08-30T06:28:45.320Z,15.67
2018-08-30T06:31:14.687Z,15.60
2018-08-30T06:33:44.185Z,15.52
2018-08-30T06:36:13.592Z,15.68
2018-08-30T06:38:43.004Z,15.75
2018-08-30T06:41:12.409Z,15.56
2018-08-30T06:43:41.764Z,15.61
2018-08-30T06:46:11.211Z,15.72
2018-08-30T06:48:40.636Z,15.78
2018-08-30T06:51:09.997Z,15.83
2018-08-30T06:53:39.348Z,15.66
2018-08-30T06:56:08.825Z,15.76
2018-08-30T06:58:38.175Z,15.70
2018-08-30T07:01:07.623Z,15.70
2018-08-30T07:03:37.008Z,15.74
2018-08-30T07:06:06.623Z,15.81
2018-08-30T07:08:35.982Z,15.87
2018-08-30T07:11:05.428Z,15.89
2018-08-30T07:13:34.793Z,15.96
2018-08-30T07:19:01.521Z,16.12
2018-08-30T07:21:31.443Z,16.04
2018-08-30T07:24:00.817Z,16.03
2018-08-30T07:26:30.215Z,15.96
2018-08-30T07:28:59.594Z,16.28
2018-08-30T07:31:29.044Z,16.16
2018-08-30T07:33:58.407Z,16.00
2018-08-30T07:36:27.819Z,15.89
2018-08-30T07:38:57.191Z,16.00
2018-08-30T07:41:26.607Z,15.92
2018-08-30T07:43:55.982Z,16.02
2018-08-30T07:46:25.435Z,15.87
2018-08-30T07:48:54.810Z,15.59
2018-08-30T07:51:24.180Z,15.50
2018-08-30T07:53:53.566Z,15.68
2018-08-30T07:56:23.049Z,15.60
2018-08-30T07:58:52.431Z,15.84
2018-08-30T08:01:21.829Z,15.80
2018-08-30T08:03:51.195Z,16.04
2018-08-30T08:06:20.642Z,16.11
2018-08-30T08:08:50.017Z,15.76
2018-08-30T08:11:19.460Z,16.13
2018-08-30T08:13:48.822Z,16.00
2018-08-30T08:16:18.200Z,16.24
2018-08-30T08:18:47.705Z,16.25
2018-08-30T08:21:17.163Z,16.19
2018-08-30T08:23:46.532Z,16.42
2018-08-30T08:26:15.964Z,16.16
2018-08-30T08:28:45.335Z,16.54
2018-08-30T08:31:14.799Z,16.45
2018-08-30T08:33:44.137Z,16.71
2018-08-30T08:36:13.588Z,16.41
2018-08-30T08:38:42.958Z,16.63
2018-08-30T08:41:12.406Z,16.29
2018-08-30T08:43:41.765Z,16.61
2018-08-30T08:46:11.145Z,16.83
2018-08-30T08:48:40.646Z,17.00
2018-08-30T08:51:10.092Z,16.98
2018-08-30T08:53:39.539Z,17.29
2018-08-30T08:56:08.914Z,17.48
2018-08-30T08:58:38.333Z,17.42
2018-08-30T09:01:07.713Z,17.23
2018-08-30T09:03:37.082Z,17.24
2018-08-30T09:06:06.613Z,17.18
2018-08-30T09:08:36.028Z,17.52
2018-08-30T09:11:05.854Z,17.66
2018-08-30T09:13:35.258Z,18.19
2018-08-30T09:16:04.647Z,17.71
2018-08-30T09:18:34.030Z,17.67
2018-08-30T09:21:03.423Z,17.55
2018-08-30T09:23:32.803Z,17.55
2018-08-30T09:26:02.247Z,17.47
2018-08-30T09:28:31.710Z,17.59
2018-08-30T09:31:01.210Z,17.73
2018-08-30T09:33:30.564Z,17.70
2018-08-30T09:35:59.978Z,17.92
2018-08-30T09:38:29.337Z,18.11
2018-08-30T09:40:58.772Z,18.05
2018-08-30T09:43:28.151Z,18.49
2018-08-30T09:45:57.628Z,18.22
2018-08-30T09:48:26.998Z,18.51
2018-08-30T09:50:56.473Z,19.05
2018-08-30T09:53:25.989Z,19.02
2018-08-30T09:55:55.390Z,18.74
2018-08-30T09:58:24.746Z,18.59
2018-08-30T10:00:59.414Z,18.42
2018-08-30T10:03:28.775Z,18.23
2018-08-30T10:05:58.189Z,18.06
2018-08-30T10:08:27.524Z,18.36
2018-08-30T10:10:56.902Z,18.35
2018-08-30T10:13:26.271Z,18.32
2018-08-30T10:15:55.794Z,18.14
2018-08-30T10:18:25.090Z,18.34
2018-08-30T10:20:54.510Z,18.26
2018-08-30T10:23:23.894Z,18.22
2018-08-30T10:25:53.373Z,18.46
2018-08-30T10:28:22.715Z,18.48
2018-08-30T10:30:52.133Z,18.86
2018-08-30T10:33:21.505Z,18.87
2018-08-30T10:35:50.931Z,18.55
2018-08-30T10:38:20.314Z,18.69
2018-08-30T10:40:49.736Z,19.11
2018-08-30T10:43:19.090Z,19.18
2018-08-30T10:45:48.561Z,18.93
2018-08-30T10:48:17.935Z,19.76
2018-08-30T10:50:47.351Z,19.89
2018-08-30T10:53:16.725Z,19.03
2018-08-30T10:55:46.254Z,19.84
2018-08-30T10:58:15.631Z,19.18
2018-08-30T11:00:45.074Z,19.40
2018-08-30T11:03:14.827Z,19.29
2018-08-30T11:05:44.305Z,19.64
2018-08-30T11:08:13.666Z,20.56
2018-08-30T11:10:43.098Z,20.32
2018-08-30T11:13:12.450Z,19.60
2018-08-30T11:15:41.914Z,19.54
2018-08-30T11:18:11.269Z,19.72
2018-08-30T11:20:40.710Z,20.56
2018-08-30T11:23:10.050Z,20.64
2018-08-30T11:25:39.542Z,20.75
2018-08-30T11:28:09.101Z,20.40
2018-08-30T11:30:38.505Z,21.23
2018-08-30T11:33:07.880Z,20.93
2018-08-30T11:35:37.310Z,22.16
2018-08-30T11:38:06.938Z,22.35
2018-08-30T11:40:36.339Z,21.89
2018-08-30T11:43:05.693Z,22.02
2018-08-30T11:45:35.126Z,22.89
2018-08-30T11:48:04.487Z,23.27
2018-08-30T11:50:33.986Z,20.87
2018-08-30T11:53:03.341Z,22.10
2018-08-30T11:55:32.750Z,20.86
2018-08-30T11:58:02.096Z,22.27
2018-08-30T12:00:31.555Z,22.10
2018-08-30T12:03:01.194Z,22.22
2018-08-30T12:05:30.712Z,21.60
2018-08-30T12:08:00.160Z,22.21
2018-08-30T12:10:30.133Z,22.97
2018-08-30T12:12:59.526Z,20.60
2018-08-30T12:15:29.135Z,20.95
2018-08-30T12:17:58.485Z,20.19
2018-08-30T12:20:28.001Z,20.35
2018-08-30T12:22:57.249Z,20.77
2018-08-30T12:25:26.695Z,21.47
2018-08-30T12:27:56.061Z,21.36
2018-08-30T12:30:25.542Z,21.32
2018-08-30T12:32:54.911Z,21.77
2018-08-30T12:35:24.369Z,22.16
2018-08-30T12:37:53.745Z,22.11
2018-08-30T12:40:23.237Z,20.51
2018-08-30T12:42:52.630Z,21.52
2018-08-30T12:45:21.941Z,21.61
2018-08-30T12:47:51.282Z,20.97
2018-08-30T12:50:20.833Z,21.26
2018-08-30T12:52:50.176Z,20.63
2018-08-30T12:55:19.607Z,20.22
2018-08-30T12:57:48.892Z,20.18
2018-08-30T13:00:18.485Z,19.84
2018-08-30T13:02:47.875Z,19.91
2018-08-30T13:05:17.329Z,19.82
2018-08-30T13:07:46.661Z,19.81
2018-08-30T13:10:16.035Z,20.00
2018-08-30T13:12:45.600Z,20.44
2018-08-30T13:15:14.977Z,19.61
2018-08-30T13:17:44.198Z,19.60
2018-08-30T13:20:13.921Z,19.73
2018-08-30T13:22:43.256Z,19.61
2018-08-30T13:25:12.723Z,19.56
2018-08-30T13:27:41.935Z,19.43
2018-08-30T13:30:11.446Z,19.52
2018-08-30T13:32:41.164Z,19.60
2018-08-30T13:35:10.511Z,19.82
2018-08-30T13:37:39.855Z,19.98
2018-08-30T13:40:09.267Z,19.85
2018-08-30T13:42:38.437Z,19.82
2018-08-30T13:45:08.751Z,20.27
2018-08-30T13:47:38.100Z,20.55
2018-08-30T13:50:07.864Z,20.87
2018-08-30T13:52:37.080Z,21.04
2018-08-30T13:55:06.390Z,20.65
2018-08-30T13:57:35.951Z,20.95
2018-08-30T14:00:05.765Z,21.67
2018-08-30T14:02:34.989Z,21.76
2018-08-30T14:05:04.538Z,21.27
2018-08-30T14:07:33.702Z,21.76
2018-08-30T14:10:03.264Z,22.92
2018-08-30T14:12:32.708Z,23.82
2018-08-30T14:15:02.364Z,23.57
2018-08-30T14:17:31.019Z,22.84
2018-08-30T14:20:00.476Z,23.22
2018-08-30T14:22:29.848Z,24.98
2018-08-30T14:24:59.310Z,24.25
2018-08-30T14:27:28.644Z,23.78
2018-08-30T14:29:58.054Z,22.90
2018-08-30T14:32:27.472Z,24.39
2018-08-30T14:34:57.121Z,24.46
2018-08-30T14:37:26.618Z,24.63
2018-08-30T14:39:55.999Z,24.65
2018-08-30T14:42:25.355Z,25.44
2018-08-30T14:44:54.799Z,24.67
2018-08-30T14:47:24.269Z,24.04
2018-08-30T14:49:53.758Z,23.55
2018-08-30T14:52:23.114Z,23.45
2018-08-30T14:54:52.561Z,23.17
2018-08-30T14:57:21.890Z,22.00
2018-08-30T14:59:51.314Z,22.18
2018-08-30T15:02:20.722Z,22.93
2018-08-30T15:04:50.381Z,21.84
2018-08-30T15:07:19.802Z,21.85
2018-08-30T15:09:49.214Z,21.99
2018-08-30T15:12:18.642Z,21.59
2018-08-30T15:14:48.265Z,21.30
2018-08-30T15:17:17.850Z,21.84
2018-08-30T15:19:47.309Z,23.16
2018-08-30T15:22:16.467Z,22.78
2018-08-30T15:24:45.951Z,22.86
2018-08-30T15:27:15.328Z,23.42
2018-08-30T15:29:44.733Z,23.51
2018-08-30T15:32:14.104Z,22.85
2018-08-30T15:34:43.562Z,21.81
2018-08-30T15:37:13.079Z,21.58
2018-08-30T15:39:42.446Z,21.47
2018-08-30T15:42:11.926Z,21.00
2018-08-30T15:44:41.261Z,21.26
2018-08-30T15:47:10.706Z,21.37
2018-08-30T15:49:40.062Z,21.28
2018-08-30T15:52:09.426Z,21.20
2018-08-30T15:54:38.881Z,21.25
2018-08-30T15:57:08.311Z,22.66
2018-08-30T15:59:37.684Z,23.54
2018-08-30T16:02:07.183Z,23.86
2018-08-30T16:04:36.727Z,23.59
2018-08-30T16:07:06.093Z,23.88
2018-08-30T16:09:35.508Z,24.50
2018-08-30T16:12:04.898Z,23.67
2018-08-30T16:14:34.319Z,23.82
2018-08-30T16:17:03.773Z,23.79
2018-08-30T16:19:33.103Z,24.51
2018-08-30T16:22:02.486Z,24.76
2018-08-30T16:24:31.963Z,24.37
2018-08-30T16:27:01.271Z,23.53
2018-08-30T16:29:30.719Z,23.35
2018-08-30T16:32:00.098Z,22.31
2018-08-30T16:34:29.514Z,21.97
2018-08-30T16:36:58.884Z,21.48
2018-08-30T16:39:28.268Z,21.47
2018-08-30T16:41:57.641Z,21.49
2018-08-30T16:44:27.041Z,21.30
2018-08-30T16:46:56.412Z,20.62
2018-08-30T16:49:25.835Z,20.62
2018-08-30T16:51:55.185Z,20.40
2018-08-30T16:54:24.654Z,20.35
2018-08-30T16:56:54.014Z,20.47
2018-08-30T16:59:23.567Z,20.32
2018-08-30T17:01:52.839Z,20.35
2018-08-30T17:04:22.268Z,20.51
2018-08-30T17:06:51.646Z,20.51
2018-08-30T17:09:21.030Z,20.43
2018-08-30T17:11:50.441Z,20.04
2018-08-30T17:14:19.810Z,20.10
2018-08-30T17:16:49.258Z,20.04
2018-08-30T17:19:30.331Z,19.87
2018-08-30T17:21:59.685Z,19.86
2018-08-30T17:24:29.184Z,19.82
2018-08-30T17:26:58.530Z,19.61
2018-08-30T17:29:27.962Z,19.49
2018-08-30T17:31:57.363Z,19.36
2018-08-30T17:34:26.724Z,19.28
2018-08-30T17:36:56.173Z,19.15
2018-08-30T17:39:25.537Z,19.10
2018-08-30T17:41:54.957Z,18.91
2018-08-30T17:44:24.367Z,18.83
2018-08-30T17:46:53.795Z,18.74
2018-08-30T17:49:23.145Z,18.77
2018-08-30T17:51:52.606Z,18.71
2018-08-30T17:54:21.958Z,18.70
2018-08-30T17:56:51.389Z,18.67
2018-08-30T17:59:20.755Z,18.61
2018-08-30T18:01:50.207Z,18.51
2018-08-30T18:04:19.557Z,18.44
2018-08-30T18:06:49.050Z,18.46
2018-08-30T18:09:18.381Z,18.54
2018-08-30T18:11:47.781Z,18.38
2018-08-30T18:14:17.157Z,18.40
2018-08-30T18:16:46.627Z,18.36
2018-08-30T18:19:15.976Z,18.33
2018-08-30T18:21:45.462Z,18.28
2018-08-30T18:24:14.858Z,18.24
2018-08-30T18:26:44.198Z,18.27
2018-08-30T18:29:13.590Z,18.19
2018-08-30T18:31:43.126Z,18.18
2018-08-30T18:34:12.531Z,18.23
2018-08-30T18:36:41.907Z,18.25
2018-08-30T18:39:11.683Z,18.22
2018-08-30T18:41:41.147Z,18.24
2018-08-30T18:44:10.918Z,18.22
2018-08-30T18:46:40.270Z,18.15
2018-08-30T18:49:09.670Z,18.11
2018-08-30T18:51:39.054Z,18.07
2018-08-30T18:54:08.449Z,18.04
2018-08-30T18:56:37.803Z,17.99
2018-08-30T18:59:07.262Z,17.93
2018-08-30T19:01:36.631Z,17.91
2018-08-30T19:04:06.130Z,17.90
2018-08-30T19:06:36.779Z,17.91
2018-08-30T19:09:09.976Z,17.90
2018-08-30T19:11:39.982Z,17.89
2018-08-30T19:14:09.741Z,17.83
2018-08-30T19:16:44.987Z,17.77
2018-08-30T19:19:17.178Z,17.78
2018-08-30T19:21:46.573Z,17.74
2018-08-30T19:24:21.317Z,17.71
2018-08-30T19:26:50.882Z,17.70
2018-08-30T19:29:20.922Z,17.64
2018-08-30T19:31:50.336Z,17.57
2018-08-30T19:34:20.698Z,17.57
2018-08-30T19:36:50.269Z,17.58
2018-08-30T19:39:19.715Z,17.53
2018-08-30T19:41:50.281Z,17.50
2018-08-30T19:44:19.666Z,17.47
2018-08-30T19:46:49.058Z,17.45
2018-08-30T19:49:18.961Z,17.44
2018-08-30T19:51:48.409Z,17.39
2018-08-30T19:54:17.974Z,17.35
2018-08-30T19:56:47.501Z,17.30
2018-08-30T19:59:17.038Z,17.25
2018-08-30T20:01:46.482Z,17.22
2018-08-30T20:04:16.113Z,17.17
2018-08-30T20:06:45.632Z,17.11
2018-08-30T20:09:15.320Z,17.01
2018-08-30T20:11:44.800Z,17.05
2018-08-30T20:14:15.210Z,17.06
2018-08-30T20:16:46.459Z,17.01
2018-08-30T20:19:16.235Z,16.90
2018-08-30T20:21:45.864Z,16.79
2018-08-30T20:24:15.447Z,16.74
2018-08-30T20:26:44.817Z,16.72
2018-08-30T20:29:14.192Z,16.75
2018-08-30T20:31:43.646Z,16.69
2018-08-30T20:34:12.982Z,16.62
2018-08-30T20:36:42.334Z,16.64
2018-08-30T20:39:11.746Z,16.55
2018-08-30T20:41:41.114Z,16.54
2018-08-30T20:44:10.695Z,16.55
2018-08-30T20:46:40.195Z,16.61
2018-08-30T20:49:09.543Z,16.51
2018-08-30T20:51:38.941Z,16.53
2018-08-30T20:54:08.522Z,16.55
2018-08-30T20:56:38.820Z,16.50
2018-08-30T20:59:08.658Z,16.42
2018-08-30T21:01:38.167Z,16.43
2018-08-30T21:04:08.683Z,16.41
2018-08-30T21:06:38.082Z,16.44
2018-08-30T21:09:09.846Z,16.51
2018-08-30T21:11:39.973Z,16.32
2018-08-30T21:14:09.312Z,16.40
2018-08-30T21:16:38.740Z,16.46
2018-08-30T21:19:08.145Z,16.46
2018-08-30T21:21:37.572Z,16.39
2018-08-30T21:24:07.062Z,16.28
2018-08-30T21:26:36.537Z,16.26
2018-08-30T21:29:06.163Z,16.22
2018-08-30T21:31:35.518Z,16.16
2018-08-30T21:34:04.890Z,16.07
2018-08-30T21:36:34.329Z,16.08
2018-08-30T21:39:05.161Z,15.96
2018-08-30T21:41:34.524Z,15.97
2018-08-30T21:44:03.986Z,15.94
2018-08-30T21:46:33.534Z,15.84
2018-08-30T21:49:03.016Z,15.78
2018-08-30T21:51:32.365Z,15.92
2018-08-30T21:54:01.803Z,15.80
2018-08-30T21:56:31.158Z,15.73
2018-08-30T21:59:00.616Z,15.65
2018-08-30T22:01:29.975Z,15.64
2018-08-30T22:03:59.399Z,15.53
2018-08-30T22:06:28.818Z,15.54
2018-08-30T22:08:58.381Z,15.47
2018-08-30T22:11:27.827Z,15.44
2018-08-30T22:13:57.197Z,15.38
2018-08-30T22:16:26.626Z,15.30
2018-08-30T22:18:55.983Z,15.35
2018-08-30T22:21:25.342Z,15.53
2018-08-30T22:23:54.715Z,15.59
2018-08-30T22:26:24.109Z,15.59
2018-08-30T22:28:53.486Z,15.58
2018-08-30T22:31:22.939Z,15.63
2018-08-30T22:33:52.289Z,15.62
2018-08-30T22:36:21.749Z,15.61
2018-08-30T22:38:51.093Z,15.71
2018-08-30T22:41:20.567Z,15.74
2018-08-30T22:43:49.917Z,15.88
2018-08-30T22:46:19.364Z,15.85
2018-08-30T22:48:48.751Z,15.83
2018-08-30T22:51:18.125Z,15.82
2018-08-30T22:53:47.557Z,15.75
2018-08-30T22:56:16.937Z,15.72
2018-08-30T22:58:46.391Z,15.70
2018-08-30T23:01:15.757Z,15.64
2018-08-30T23:03:45.167Z,15.64
2018-08-30T23:06:14.533Z,15.59
2018-08-30T23:08:43.975Z,15.64
2018-08-30T23:11:13.362Z,15.62
2018-08-30T23:13:42.782Z,15.54
2018-08-30T23:16:12.176Z,15.55
2018-08-30T23:18:41.598Z,15.55
2018-08-30T23:21:10.974Z,15.55
2018-08-30T23:23:40.399Z,15.63
2018-08-30T23:26:09.770Z,15.62
2018-08-30T23:28:39.200Z,15.56
2018-08-30T23:31:08.645Z,15.55
2018-08-30T23:33:38.155Z,15.54
2018-08-30T23:36:07.539Z,15.54
2018-08-30T23:38:37.011Z,15.50
2018-08-30T23:41:06.830Z,15.51
2018-08-30T23:43:36.239Z,15.47
2018-08-30T23:46:05.753Z,15.40
2018-08-30T23:48:35.222Z,15.33
2018-08-30T23:51:04.634Z,15.33
2018-08-30T23:53:34.070Z,15.32
2018-08-30T23:56:03.466Z,15.32
2018-08-30T23:58:50.035Z,15.24
